createdAt,value
2023-05-28T00:04:39.524Z,0
2023-05-28T00:09:37.646Z,0
2023-05-28T00:19:34.964Z,0
2023-05-28T00:24:35.181Z,0
2023-05-28T00:34:30.113Z,0
2023-05-28T00:39:26.591Z,0
2023-05-28T00:49:26.037Z,0
2023-05-28T00:54:25.808Z,0
2023-05-28T01:01:09.270Z,0
2023-05-28T01:05:44.836Z,0
2023-05-28T01:10:45.299Z,0
2023-05-28T01:15:44.255Z,0
2023-05-28T01:20:43.937Z,0
2023-05-28T01:25:43.528Z,0
2023-05-28T01:35:45.368Z,0
2023-05-28T01:40:40.778Z,0
2023-05-28T01:45:40.677Z,0
2023-05-28T01:50:39.839Z,0
2023-05-28T01:55:39.565Z,0
2023-05-28T02:00:08.784Z,0
2023-05-28T02:05:09.360Z,0
2023-05-28T02:15:10.773Z,0
2023-05-28T02:20:05.823Z,0
2023-05-28T02:25:05.870Z,0
2023-05-28T02:30:05.714Z,0
2023-05-28T02:35:04.864Z,0
2023-05-28T02:40:02.031Z,0
2023-05-28T02:45:02.024Z,0
2023-05-28T02:50:01.390Z,0
2023-05-28T02:55:01.017Z,0
2023-05-28T02:59:58.687Z,0
2023-05-28T03:04:59.336Z,0
2023-05-28T03:09:59.178Z,0
2023-05-28T03:14:59.704Z,0
2023-05-28T03:19:56.843Z,0
2023-05-28T03:24:56.592Z,0
2023-05-28T03:29:58.066Z,0
2023-05-28T03:34:44.451Z,0
2023-05-28T03:39:43.808Z,0
2023-05-28T03:44:43.238Z,0
2023-05-28T03:49:43.221Z,0
2023-05-28T03:54:42.569Z,0
2023-05-28T04:04:42.711Z,0.01
2023-05-28T04:14:39.452Z,0.01
2023-05-28T04:19:40.056Z,0.02
2023-05-28T04:24:38.842Z,0.02
2023-05-28T04:29:38.800Z,0.02
2023-05-28T04:34:36.253Z,0.03
2023-05-28T04:39:36.262Z,0.03
2023-05-28T04:44:35.070Z,0.03
2023-05-28T04:49:34.762Z,0.04
2023-05-28T04:54:34.082Z,0.04
2023-05-28T05:04:34.557Z,0.05
2023-05-28T05:09:33.317Z,0.06
2023-05-28T05:14:32.619Z,0.06
2023-05-28T05:19:32.147Z,0.07
2023-05-28T05:24:32.334Z,0.07
2023-05-28T05:29:32.278Z,0.08
2023-05-28T05:34:31.529Z,0.08
2023-05-28T05:39:31.395Z,0.09
2023-05-28T05:44:31.673Z,0.1
2023-05-28T05:49:30.746Z,0.1
2023-05-28T05:54:32.267Z,0.11
2023-05-28T06:04:52.386Z,0.12
2023-05-28T06:14:19.978Z,0.13
2023-05-28T06:19:17.931Z,0.14
2023-05-28T06:24:17.876Z,0.15
2023-05-28T06:29:17.216Z,0.15
2023-05-28T06:34:16.899Z,0.16
2023-05-28T06:39:16.536Z,0.17
2023-05-28T06:44:15.809Z,0.17
2023-05-28T06:49:15.989Z,0.18
2023-05-28T06:54:16.426Z,0.19
2023-05-28T07:01:00.386Z,0.2
2023-05-28T07:05:35.764Z,0.29
2023-05-28T07:10:37.635Z,0.31
2023-05-28T07:15:34.829Z,0.33
2023-05-28T07:20:34.874Z,0.34
2023-05-28T07:25:35.374Z,0.36
2023-05-28T07:30:34.988Z,0.38
2023-05-28T07:35:36.046Z,0.39
2023-05-28T07:40:32.933Z,0.4
2023-05-28T07:45:33.225Z,0.42
2023-05-28T07:50:32.693Z,0.43
2023-05-28T07:55:33.019Z,0.45
2023-05-28T07:59:58.000Z,0.47
2023-05-28T08:09:58.983Z,0.51
2023-05-28T08:14:57.481Z,0.53
2023-05-28T08:20:12.094Z,0.55
2023-05-28T08:24:57.653Z,0.57
2023-05-28T08:29:56.015Z,0.59
2023-05-28T08:34:56.835Z,0.61
2023-05-28T08:39:56.961Z,0.63
2023-05-28T08:44:56.011Z,0.65
2023-05-28T08:49:57.085Z,0.67
2023-05-28T08:54:56.194Z,0.68
2023-05-28T09:04:43.688Z,0.71
2023-05-28T09:09:43.165Z,0.73
2023-05-28T09:14:42.415Z,0.74
2023-05-28T09:19:42.892Z,0.75
2023-05-28T09:24:39.789Z,0.77
2023-05-28T09:29:39.750Z,0.78
2023-05-28T09:34:40.554Z,0.8
2023-05-28T09:39:39.541Z,0.81
2023-05-28T09:44:38.732Z,0.82
2023-05-28T09:49:38.641Z,0.83
2023-05-28T09:54:38.463Z,0.85
2023-05-28T12:01:08.338Z,1.02
2023-05-28T12:05:43.433Z,1.02
2023-05-28T12:10:43.248Z,1.01
2023-05-28T12:15:43.573Z,1
2023-05-28T12:20:43.574Z,0.99
2023-05-28T12:25:44.474Z,0.98
2023-05-28T12:30:40.063Z,0.96
2023-05-28T12:35:40.071Z,0.95
2023-05-28T12:40:39.612Z,0.94
2023-05-28T12:45:39.336Z,0.93
2023-05-28T12:50:37.613Z,0.91
2023-05-28T12:55:49.942Z,0.9
2023-05-28T12:59:53.621Z,0.9
2023-05-28T13:54:42.756Z,0.39
2023-05-28T13:59:42.979Z,0.33
2023-05-28T14:04:37.850Z,0.35
2023-05-28T14:09:38.399Z,0.44
2023-05-28T14:14:35.159Z,0.31
2023-05-28T14:19:34.641Z,0.31
2023-05-28T14:24:33.948Z,0.57
2023-05-28T14:29:33.990Z,0.42
2023-05-28T14:34:31.068Z,0.57
2023-05-28T14:39:30.947Z,0.28
2023-05-28T14:44:32.995Z,0.29
2023-05-28T14:49:30.644Z,0.42
2023-05-28T14:54:29.894Z,0.32
2023-05-28T15:01:21.604Z,0.44
2023-05-28T15:06:01.904Z,0.29
2023-05-28T15:10:58.761Z,0.3
2023-05-28T15:15:58.875Z,0.24
2023-05-28T15:21:02.122Z,0.22
2023-05-28T15:25:56.972Z,0.27
2023-05-28T15:30:56.597Z,0.22
2023-05-28T15:35:57.566Z,0.24
2023-05-28T15:40:43.785Z,0.23
2023-05-28T15:45:43.607Z,0.2
2023-05-28T15:50:43.774Z,0.19
2023-05-28T15:55:42.917Z,0.18
2023-05-28T16:00:00.605Z,0.17
2023-05-28T16:10:00.282Z,0.17
2023-05-28T16:15:00.951Z,0.16
2023-05-28T16:19:57.921Z,0.18
2023-05-28T16:24:57.692Z,0.18
2023-05-28T16:29:59.192Z,0.14
2023-05-28T16:34:56.528Z,0.13
2023-05-28T16:39:56.375Z,0.13
2023-05-28T16:44:57.887Z,0.12
2023-05-28T17:04:50.609Z,0.1
2023-05-28T17:25:31.888Z,0.07
2023-05-28T17:54:52.072Z,0.04
2023-05-28T18:04:33.790Z,0.03
2023-05-28T18:14:33.199Z,0.03
2023-05-28T18:19:37.418Z,0.02
2023-05-28T18:29:30.778Z,0.02
2023-05-28T18:34:35.382Z,0.01
2023-05-28T18:44:27.684Z,0.01
2023-05-28T18:49:27.163Z,0.01
2023-05-28T19:06:03.253Z,0
2023-05-28T19:10:57.640Z,0
2023-05-28T19:15:59.282Z,0
2023-05-28T19:20:56.387Z,0
2023-05-28T19:25:45.095Z,0
2023-05-28T19:30:45.149Z,0
2023-05-28T19:35:44.005Z,0
2023-05-28T19:40:53.235Z,0
2023-05-28T19:45:43.892Z,0
2023-05-28T19:50:44.201Z,0
2023-05-28T19:55:42.789Z,0
2023-05-28T20:00:06.500Z,0
2023-05-28T20:05:05.998Z,0
2023-05-28T20:10:05.081Z,0
2023-05-28T20:15:04.518Z,0
2023-05-28T20:25:04.029Z,0
2023-05-28T20:30:03.567Z,0
2023-05-28T20:35:04.332Z,0
2023-05-28T20:45:00.921Z,0
2023-05-28T20:55:00.267Z,0
2023-05-28T21:00:08.272Z,0
2023-05-28T21:04:55.977Z,0
2023-05-28T21:10:01.573Z,0
2023-05-28T21:14:44.296Z,0
2023-05-28T21:19:54.433Z,0
2023-05-28T21:24:49.648Z,0
2023-05-28T21:29:43.744Z,0
2023-05-28T21:34:42.756Z,0
2023-05-28T21:39:42.625Z,0
2023-05-28T21:44:41.515Z,0
2023-05-28T21:49:41.487Z,0
2023-05-28T21:54:38.632Z,0
2023-05-28T21:59:38.050Z,0
2023-05-28T22:04:38.934Z,0
2023-05-28T22:09:37.851Z,0
2023-05-28T22:14:37.325Z,0
2023-05-28T22:19:36.427Z,0
2023-05-28T22:24:36.486Z,0
2023-05-28T22:29:50.256Z,0
2023-05-28T22:34:42.504Z,0
2023-05-28T22:39:33.611Z,0
2023-05-28T22:44:42.317Z,0
2023-05-28T22:49:33.164Z,0
2023-05-28T22:54:42.610Z,0
2023-05-28T23:24:26.996Z,0
2023-05-28T23:49:33.809Z,0
